Time;durP1;ratioP1;P1;durP2;ratioP2;P2;SDS_P1;SDS_P2;PMS_P1;PMS_P2;Temp;Humidity;BMP_temperature;BMP_pressure;BME280_temperature;BME280_humidity;BME280_pressure;Samples;Min_cycle;Max_cycle;Signal;HPM_P1;HPM_P2
2022/03/28 00:00:10;;;;;;;;;;;;;;;7.08;71.58;102721.66;5103441;28;20415;-72
2022/03/28 00:02:40;;;;;;;;;;;;;;;7.03;69.01;102718.75;5106144;28;19971;-73
2022/03/28 00:05:05;;;;;;;;;;;;;;;6.96;68.64;102720.00;5122009;27;19916;-71
2022/03/28 00:07:30;;;;;;;;;;;;;;;6.90;67.18;102714.44;5105990;28;19930;-72
2022/03/28 00:09:56;;;;;;;;;;;;;;;6.83;67.31;102713.88;5100225;28;19924;-71
2022/03/28 00:12:21;;;;;;;;;;;;;;;6.78;70.61;102713.53;5105814;28;20319;-72
2022/03/28 00:14:46;;;;;;;;;;;;;;;6.74;68.72;102711.56;5106272;28;19930;-71
2022/03/28 00:17:11;;;;;;;;;;;;;;;6.69;68.39;102705.22;5089919;28;20309;-70
2022/03/28 00:19:37;;;;;;;;;;;;;;;6.65;70.87;102704.09;5106495;28;19923;-70
2022/03/28 00:22:02;;;;;;;;;;;;;;;6.62;71.84;102703.00;5108093;28;20322;-71
2022/03/28 00:24:27;;;;;;;;;;;;;;;6.60;70.76;102699.41;5108288;28;19927;-70
2022/03/28 00:26:55;;;;;;;;;;;;;;;6.56;72.46;102690.66;5109680;28;20010;-69
2022/03/28 00:29:20;;;;;;;;;;;;;;;6.56;74.06;102684.66;5108923;28;19927;-71
2022/03/28 00:31:45;;;;;;;;;;;;;;;6.52;69.38;102673.31;5090920;28;19931;-70
2022/03/28 00:34:10;;;;;;;;;;;;;;;6.47;69.86;102671.19;5106866;28;19927;-70
2022/03/28 00:36:36;;;;;;;;;;;;;;;6.42;71.61;102670.84;5090946;28;19923;-70
2022/03/28 00:39:01;;;;;;;;;;;;;;;6.36;71.40;102665.28;5109772;28;20036;-70
2022/03/28 00:41:26;;;;;;;;;;;;;;;6.31;72.73;102662.41;5109820;28;20399;-69
2022/03/28 00:43:53;;;;;;;;;;;;;;;6.29;74.04;102661.38;5090719;28;19919;-71
2022/03/28 00:46:18;;;;;;;;;;;;;;;6.26;71.48;102665.41;5099388;28;20435;-72
2022/03/28 00:48:43;;;;;;;;;;;;;;;6.22;74.08;102663.38;5106761;28;19919;-71
2022/03/28 00:51:09;;;;;;;;;;;;;;;6.18;73.61;102658.03;5107764;28;19955;-71
2022/03/28 00:53:34;;;;;;;;;;;;;;;6.16;72.54;102656.16;5107719;28;19922;-71
2022/03/28 00:56:00;;;;;;;;;;;;;;;6.16;74.54;102657.03;5107773;28;19920;-71
2022/03/28 00:58:25;;;;;;;;;;;;;;;6.12;76.46;102649.03;5106463;28;20061;-70
2022/03/28 01:00:50;;;;;;;;;;;;;;;6.09;72.38;102648.81;5107693;28;19924;-71
2022/03/28 01:03:15;;;;;;;;;;;;;;;6.07;74.38;102647.81;5107901;28;20007;-70
2022/03/28 01:05:42;;;;;;;;;;;;;;;6.04;74.97;102645.91;5107508;28;19924;-70
2022/03/28 01:08:08;;;;;;;;;;;;;;;6.02;74.98;102638.94;5107906;28;19928;-70
2022/03/28 01:10:34;;;;;;;;;;;;;;;5.98;72.95;102644.56;5107409;28;20002;-70
2022/03/28 01:13:00;;;;;;;;;;;;;;;5.95;74.29;102646.91;5104790;28;19920;-71
2022/03/28 01:15:25;;;;;;;;;;;;;;;5.93;73.58;102646.75;5106366;28;19920;-73
2022/03/28 01:18:06;;;;;;;;;;;;;;;5.88;74.73;102638.75;5108072;28;20283;-72
2022/03/28 01:20:33;;;;;;;;;;;;;;;5.87;75.26;102636.06;5107983;28;19931;-70
2022/03/28 01:22:58;;;;;;;;;;;;;;;5.83;73.59;102631.53;5118399;27;19977;-70
2022/03/28 01:25:24;;;;;;;;;;;;;;;5.77;74.54;102626.84;5111606;28;19924;-70
2022/03/28 01:27:52;;;;;;;;;;;;;;;5.73;72.85;102627.38;5108450;28;19923;-71
2022/03/28 01:30:18;;;;;;;;;;;;;;;5.70;71.86;102621.13;5112051;28;19997;-70
2022/03/28 01:32:45;;;;;;;;;;;;;;;5.67;71.28;102621.81;5109919;28;20003;-71
2022/03/28 01:35:10;;;;;;;;;;;;;;;5.65;76.23;102619.16;5092371;28;20028;-70
2022/03/28 01:37:36;;;;;;;;;;;;;;;5.63;75.39;102619.78;5110029;28;20383;-70
2022/03/28 01:40:01;;;;;;;;;;;;;;;5.63;77.52;102624.88;5109061;28;19922;-70
2022/03/28 01:42:26;;;;;;;;;;;;;;;5.59;73.51;102603.38;5092458;28;19920;-70
2022/03/28 01:44:52;;;;;;;;;;;;;;;5.58;72.15;102600.69;5111467;28;20014;-71
2022/03/28 01:47:17;;;;;;;;;;;;;;;5.55;76.45;102603.00;5101866;28;20351;-70
2022/03/28 01:49:43;;;;;;;;;;;;;;;5.52;75.53;102601.13;5105968;28;19956;-70
2022/03/28 01:52:08;;;;;;;;;;;;;;;5.49;77.79;102600.88;5109887;28;19932;-71
2022/03/28 01:54:33;;;;;;;;;;;;;;;5.48;71.64;102603.31;5109333;28;19920;-70
2022/03/28 01:56:59;;;;;;;;;;;;;;;5.46;73.87;102604.84;5112227;28;20298;-71
2022/03/28 01:59:24;;;;;;;;;;;;;;;5.44;76.48;102606.41;5106569;28;19959;-71
2022/03/28 02:01:50;;;;;;;;;;;;;;;5.43;77.34;102605.50;5110050;28;19974;-71
2022/03/28 02:04:15;;;;;;;;;;;;;;;5.41;77.98;102601.09;5112433;28;19971;-70
2022/03/28 02:06:40;;;;;;;;;;;;;;;5.37;79.92;102595.72;5108303;28;19923;-71
2022/03/28 02:09:06;;;;;;;;;;;;;;;5.36;77.89;102593.94;5111675;28;20375;-71
2022/03/28 02:11:31;;;;;;;;;;;;;;;5.33;77.24;102591.16;5110977;28;19976;-71
2022/03/28 02:13:56;;;;;;;;;;;;;;;5.30;78.03;102593.50;5110024;28;20378;-70
2022/03/28 02:16:21;;;;;;;;;;;;;;;5.27;79.00;102600.88;5112677;28;19916;-71
2022/03/28 02:18:47;;;;;;;;;;;;;;;5.23;79.71;102596.34;5111522;28;19920;-71
2022/03/28 02:21:12;;;;;;;;;;;;;;;5.21;78.65;102592.75;5110120;28;20574;-71
2022/03/28 02:23:37;;;;;;;;;;;;;;;5.18;79.24;102578.91;5108015;28;19951;-70
2022/03/28 02:26:03;;;;;;;;;;;;;;;5.15;77.32;102588.84;5106697;28;20389;-71
2022/03/28 02:28:29;;;;;;;;;;;;;;;5.11;78.45;102590.28;5111625;28;19923;-71
2022/03/28 02:30:55;;;;;;;;;;;;;;;5.07;79.41;102588.25;5109098;28;19920;-71
2022/03/28 02:33:20;;;;;;;;;;;;;;;5.04;79.30;102583.84;5108179;28;19919;-71
2022/03/28 02:35:46;;;;;;;;;;;;;;;5.01;80.40;102582.69;5109828;28;20392;-71
2022/03/28 02:38:11;;;;;;;;;;;;;;;4.99;79.61;102585.13;5110465;28;19931;-71
2022/03/28 02:40:37;;;;;;;;;;;;;;;4.97;78.46;102583.22;5112231;28;19919;-71
2022/03/28 02:43:03;;;;;;;;;;;;;;;4.94;78.00;102570.25;5110868;28;20667;-71
2022/03/28 02:45:33;;;;;;;;;;;;;;;4.89;78.77;102574.97;5108024;28;19920;-70
2022/03/28 02:48:01;;;;;;;;;;;;;;;4.88;80.35;102569.75;5110531;28;19922;-70
2022/03/28 02:50:27;;;;;;;;;;;;;;;4.83;79.38;102567.75;5101517;28;19924;-71
2022/03/28 02:52:52;;;;;;;;;;;;;;;4.80;76.90;102553.88;5109945;28;20236;-71
2022/03/28 02:55:18;;;;;;;;;;;;;;;4.79;79.73;102544.44;5111010;28;19920;-71
2022/03/28 02:57:43;;;;;;;;;;;;;;;4.75;80.56;102550.09;5109250;28;19931;-71
2022/03/28 03:00:10;;;;;;;;;;;;;;;4.74;79.72;102543.22;5110351;28;19932;-71
2022/03/28 03:02:36;;;;;;;;;;;;;;;4.71;76.79;102541.28;5109683;28;19920;-71
2022/03/28 03:05:01;;;;;;;;;;;;;;;4.68;80.29;102541.06;5111705;28;19939;-72
2022/03/28 03:07:26;;;;;;;;;;;;;;;4.66;80.17;102536.59;5113394;28;20396;-72
2022/03/28 03:09:52;;;;;;;;;;;;;;;4.64;81.84;102538.16;5110355;28;19927;-71
2022/03/28 03:12:17;;;;;;;;;;;;;;;4.61;80.64;102535.34;5109437;28;19961;-71
2022/03/28 03:14:42;;;;;;;;;;;;;;;4.59;81.12;102532.69;5109148;28;19920;-70
2022/03/28 03:17:08;;;;;;;;;;;;;;;4.56;79.44;102532.47;5105956;28;19920;-71
2022/03/28 03:19:33;;;;;;;;;;;;;;;4.52;78.14;102522.78;5108831;28;19943;-70
2022/03/28 03:21:58;;;;;;;;;;;;;;;4.49;78.13;102528.53;5093076;28;19920;-70
2022/03/28 03:24:23;;;;;;;;;;;;;;;4.47;81.37;102532.59;5109698;28;19984;-71
2022/03/28 03:26:49;;;;;;;;;;;;;;;4.45;82.65;102535.81;5103939;28;19955;-70
2022/03/28 03:29:14;;;;;;;;;;;;;;;4.41;83.04;102534.66;5106248;28;20231;-71
2022/03/28 03:31:39;;;;;;;;;;;;;;;4.38;82.66;102528.47;5105557;28;19924;-71
2022/03/28 03:34:06;;;;;;;;;;;;;;;4.37;80.92;102526.66;5107651;28;20023;-70
2022/03/28 03:36:31;;;;;;;;;;;;;;;4.35;81.35;102520.56;5109143;28;19976;-70
2022/03/28 03:38:56;;;;;;;;;;;;;;;4.32;78.42;102515.25;5109785;27;20387;-70
2022/03/28 03:41:21;;;;;;;;;;;;;;;4.31;82.66;102527.09;5109920;28;19928;-70
2022/03/28 03:43:47;;;;;;;;;;;;;;;4.26;81.92;102528.38;5107475;28;19958;-70
2022/03/28 03:46:12;;;;;;;;;;;;;;;4.25;79.25;102522.38;5104111;28;19916;-70
2022/03/28 03:48:37;;;;;;;;;;;;;;;4.21;79.15;102514.38;5109902;28;19966;-70
2022/03/28 03:51:03;;;;;;;;;;;;;;;4.18;79.17;102519.22;5105689;28;20449;-70
2022/03/28 03:53:28;;;;;;;;;;;;;;;4.14;80.17;102510.44;5110295;28;19939;-69
2022/03/28 03:55:53;;;;;;;;;;;;;;;4.09;79.25;102509.19;5106431;28;19915;-70
2022/03/28 03:58:19;;;;;;;;;;;;;;;4.06;81.27;102502.94;5107509;28;19924;-69
2022/03/28 04:00:44;;;;;;;;;;;;;;;4.03;78.53;102498.53;5106851;28;19920;-70
2022/03/28 04:03:09;;;;;;;;;;;;;;;4.01;81.00;102500.94;5106354;28;19927;-70
2022/03/28 04:05:37;;;;;;;;;;;;;;;3.99;79.84;102499.91;5109088;28;20370;-70
2022/03/28 04:08:04;;;;;;;;;;;;;;;3.99;78.47;102496.47;5087893;28;19919;-70
2022/03/28 04:10:30;;;;;;;;;;;;;;;3.95;80.94;102487.72;5091059;28;20386;-70
2022/03/28 04:12:55;;;;;;;;;;;;;;;3.95;84.69;102490.28;5091993;28;19924;-70
2022/03/28 04:15:22;;;;;;;;;;;;;;;3.94;82.40;102482.50;5109227;28;20420;-71
2022/03/28 04:17:48;;;;;;;;;;;;;;;3.90;81.92;102481.38;5108190;28;19947;-70
2022/03/28 04:20:14;;;;;;;;;;;;;;;3.89;85.16;102483.81;5109180;28;19965;-70
2022/03/28 04:22:40;;;;;;;;;;;;;;;3.88;84.72;102492.19;5099867;28;19963;-70
2022/03/28 04:25:06;;;;;;;;;;;;;;;3.83;83.43;102486.75;5105338;28;19994;-70
2022/03/28 04:27:31;;;;;;;;;;;;;;;3.80;83.72;102480.50;5107129;28;19928;-70
2022/03/28 04:29:57;;;;;;;;;;;;;;;3.76;81.45;102477.72;5107091;28;19920;-70
2022/03/28 04:32:23;;;;;;;;;;;;;;;3.75;84.54;102483.56;5105091;28;19967;-71
2022/03/28 04:34:49;;;;;;;;;;;;;;;3.72;84.36;102483.31;5107396;28;19920;-70
2022/03/28 04:37:14;;;;;;;;;;;;;;;3.70;85.65;102484.84;5106981;28;19935;-71
2022/03/28 04:39:39;;;;;;;;;;;;;;;3.69;84.46;102480.50;5107148;28;19927;-71
2022/03/28 04:42:05;;;;;;;;;;;;;;;3.67;84.60;102481.16;5103685;28;19970;-71
2022/03/28 04:44:30;;;;;;;;;;;;;;;3.63;86.01;102480.00;5108214;28;19916;-70
2022/03/28 04:46:55;;;;;;;;;;;;;;;3.61;85.35;102491.72;5101632;28;19935;-71
2022/03/28 04:49:20;;;;;;;;;;;;;;;3.58;84.53;102499.13;5105219;28;20367;-71
2022/03/28 04:51:46;;;;;;;;;;;;;;;3.56;85.96;102499.75;5108200;28;19919;-70
2022/03/28 04:54:11;;;;;;;;;;;;;;;3.52;86.93;102498.63;5105670;28;19965;-70
2022/03/28 04:56:37;;;;;;;;;;;;;;;3.50;89.44;102498.47;5111062;28;20306;-70
2022/03/28 04:59:02;;;;;;;;;;;;;;;3.50;88.63;102492.50;5112970;28;19968;-68
2022/03/28 05:01:27;;;;;;;;;;;;;;;3.49;87.95;102493.25;5113552;28;19928;-70
2022/03/28 05:03:53;;;;;;;;;;;;;;;3.45;84.95;102489.56;5115952;27;19923;-70
2022/03/28 05:06:18;;;;;;;;;;;;;;;3.43;84.56;102485.13;5096081;28;19919;-71
2022/03/28 05:08:43;;;;;;;;;;;;;;;3.41;85.69;102486.66;5115401;28;20038;-72
2022/03/28 05:11:09;;;;;;;;;;;;;;;3.40;86.73;102485.78;5097068;28;19927;-70
2022/03/28 05:13:34;;;;;;;;;;;;;;;3.40;86.66;102488.31;5112436;27;20570;-71
2022/03/28 05:15:59;;;;;;;;;;;;;;;3.36;84.78;102487.94;5112220;28;19920;-71
2022/03/28 05:18:25;;;;;;;;;;;;;;;3.36;87.21;102498.09;5116702;28;19927;-72
2022/03/28 05:20:50;;;;;;;;;;;;;;;3.33;86.90;102487.66;5112333;27;20270;-72
2022/03/28 05:23:15;;;;;;;;;;;;;;;3.31;87.09;102485.00;5113676;28;19920;-71
2022/03/28 05:25:41;;;;;;;;;;;;;;;3.30;88.58;102483.22;5107957;28;19930;-71
2022/03/28 05:28:06;;;;;;;;;;;;;;;3.30;87.26;102480.69;5113491;28;19984;-72
2022/03/28 05:30:31;;;;;;;;;;;;;;;3.32;86.65;102480.81;5115034;27;19928;-72
2022/03/28 05:32:57;;;;;;;;;;;;;;;3.29;88.21;102480.56;5112477;28;20283;-72
2022/03/28 05:35:22;;;;;;;;;;;;;;;3.30;88.51;102482.34;5104486;28;19931;-73
2022/03/28 05:37:47;;;;;;;;;;;;;;;3.31;89.66;102484.13;5111848;28;20527;-73
2022/03/28 05:40:13;;;;;;;;;;;;;;;3.33;88.18;102477.50;5111592;27;19916;-73
2022/03/28 05:42:38;;;;;;;;;;;;;;;3.36;89.17;102487.94;5108996;28;20004;-73
2022/03/28 05:45:04;;;;;;;;;;;;;;;3.43;88.21;102483.47;5093069;28;20421;-73
2022/03/28 05:47:29;;;;;;;;;;;;;;;3.55;88.34;102478.50;5111872;28;19919;-73
2022/03/28 05:49:54;;;;;;;;;;;;;;;3.70;89.46;102479.78;5110956;28;19920;-72
2022/03/28 05:52:20;;;;;;;;;;;;;;;3.85;87.29;102471.59;5112312;27;20290;-72
2022/03/28 05:54:47;;;;;;;;;;;;;;;4.00;88.73;102477.91;5112173;28;20288;-72
2022/03/28 05:57:12;;;;;;;;;;;;;;;4.21;89.25;102478.72;5113864;27;20387;-72
2022/03/28 05:59:38;;;;;;;;;;;;;;;4.57;90.01;102478.19;5113432;28;19961;-72
2022/03/28 06:02:04;;;;;;;;;;;;;;;4.92;88.69;102468.16;5114038;28;20359;-72
2022/03/28 06:04:29;;;;;;;;;;;;;;;5.25;83.16;102458.72;5112878;28;19924;-72
2022/03/28 06:06:55;;;;;;;;;;;;;;;5.52;84.22;102452.22;5091182;28;20430;-73
2022/03/28 06:09:20;;;;;;;;;;;;;;;5.79;85.49;102454.25;5106442;27;19919;-72
2022/03/28 06:11:46;;;;;;;;;;;;;;;6.14;85.53;102466.16;5111477;27;20317;-72
2022/03/28 06:14:11;;;;;;;;;;;;;;;6.39;80.65;102461.13;5107286;28;19919;-73
2022/03/28 06:16:36;;;;;;;;;;;;;;;6.84;82.66;102459.97;5102410;28;20363;-73
2022/03/28 06:19:02;;;;;;;;;;;;;;;7.30;81.87;102447.72;5114976;27;19920;-72
2022/03/28 06:21:30;;;;;;;;;;;;;;;7.69;80.41;102455.44;5108054;28;19924;-71
2022/03/28 06:23:56;;;;;;;;;;;;;;;8.04;78.52;102457.72;5107744;28;20375;-73
2022/03/28 06:26:21;;;;;;;;;;;;;;;8.37;78.26;102455.53;5105894;28;20033;-72
2022/03/28 06:28:49;;;;;;;;;;;;;;;8.72;76.80;102446.56;5109467;28;20402;-72
2022/03/28 06:31:14;;;;;;;;;;;;;;;9.21;73.65;102446.94;5106572;28;19938;-72
2022/03/28 06:33:39;;;;;;;;;;;;;;;9.81;74.40;102448.69;5110334;28;19916;-72
2022/03/28 06:36:05;;;;;;;;;;;;;;;10.35;71.54;102447.44;5087051;28;19920;-73
2022/03/28 06:38:30;;;;;;;;;;;;;;;11.02;70.56;102443.25;5106651;28;19920;-71
2022/03/28 06:40:56;;;;;;;;;;;;;;;11.59;68.06;102436.72;5108769;28;19968;-72
2022/03/28 06:43:21;;;;;;;;;;;;;;;12.33;67.17;102441.97;5109846;27;19931;-73
2022/03/28 06:45:46;;;;;;;;;;;;;;;12.85;65.52;102439.13;5106347;28;19920;-72
2022/03/28 06:48:12;;;;;;;;;;;;;;;13.39;63.76;102447.53;5092545;28;19930;-73
2022/03/28 06:50:38;;;;;;;;;;;;;;;13.93;59.30;102439.34;5106094;28;19959;-74
2022/03/28 06:53:03;;;;;;;;;;;;;;;13.99;59.81;102446.47;5077647;28;19958;-73
2022/03/28 06:55:28;;;;;;;;;;;;;;;14.31;59.20;102435.66;5109162;28;19991;-73
2022/03/28 06:57:54;;;;;;;;;;;;;;;14.61;57.68;102437.66;5107737;28;19919;-74
2022/03/28 07:00:19;;;;;;;;;;;;;;;15.06;57.85;102440.13;5106109;28;20159;-76
2022/03/28 07:02:45;;;;;;;;;;;;;;;15.73;56.19;102434.63;5104419;28;19927;-76
2022/03/28 07:05:10;;;;;;;;;;;;;;;16.35;54.51;102438.25;5088872;28;20306;-77
2022/03/28 07:07:43;;;;;;;;;;;;;;;16.90;53.84;102426.84;5105367;28;20976;-77
2022/03/28 07:10:09;;;;;;;;;;;;;;;16.94;46.87;102425.25;5102437;28;20294;-77
2022/03/28 07:12:34;;;;;;;;;;;;;;;16.63;50.93;102430.44;5102933;28;19955;-77
2022/03/28 07:15:00;;;;;;;;;;;;;;;17.22;51.59;102432.00;5107761;27;19924;-74
2022/03/28 07:17:25;;;;;;;;;;;;;;;17.83;45.97;102415.31;5104654;28;20398;-74
2022/03/28 07:19:50;;;;;;;;;;;;;;;18.21;51.24;102421.41;5086376;28;20349;-75
2022/03/28 07:22:16;;;;;;;;;;;;;;;18.87;48.22;102415.81;5104537;28;19919;-73
2022/03/28 07:24:41;;;;;;;;;;;;;;;19.49;42.20;102402.97;5107711;28;20493;-73
2022/03/28 07:27:06;;;;;;;;;;;;;;;19.41;45.18;102401.94;5104756;28;20478;-72
2022/03/28 07:29:31;;;;;;;;;;;;;;;19.77;45.16;102409.50;5107518;28;19943;-73
2022/03/28 07:31:57;;;;;;;;;;;;;;;20.23;44.18;102406.66;5105649;28;20389;-73
2022/03/28 07:34:33;;;;;;;;;;;;;;;20.90;44.02;102404.84;5100499;28;19931;-74
2022/03/28 07:36:59;;;;;;;;;;;;;;;21.59;36.88;102410.66;5108440;28;19920;-73
2022/03/28 07:39:24;;;;;;;;;;;;;;;21.57;39.52;102407.16;5105316;28;20004;-74
2022/03/28 07:41:50;;;;;;;;;;;;;;;21.64;35.28;102401.09;5111254;27;19953;-73
2022/03/28 07:44:15;;;;;;;;;;;;;;;21.30;40.40;102395.66;5103567;28;19931;-73
2022/03/28 07:46:41;;;;;;;;;;;;;;;21.65;35.41;102400.22;5108765;28;19931;-73
2022/03/28 07:49:09;;;;;;;;;;;;;;;21.76;36.76;102388.09;5104853;28;20022;-75
2022/03/28 07:51:35;;;;;;;;;;;;;;;21.71;36.06;102395.03;5108742;28;19931;-76
2022/03/28 07:54:00;;;;;;;;;;;;;;;21.73;37.68;102389.84;5106598;28;19928;-76
2022/03/28 07:56:25;;;;;;;;;;;;;;;22.14;35.94;102384.81;5091700;27;19928;-76
2022/03/28 07:58:51;;;;;;;;;;;;;;;22.74;40.32;102380.63;5103895;28;20358;-77
2022/03/28 08:01:16;;;;;;;;;;;;;;;23.68;35.05;102369.31;5102332;28;20421;-76
2022/03/28 08:03:41;;;;;;;;;;;;;;;24.36;37.02;102366.44;5102872;28;19923;-76
2022/03/28 08:06:06;;;;;;;;;;;;;;;24.57;36.74;102369.84;5098632;28;21116;-75
2022/03/28 08:08:35;;;;;;;;;;;;;;;24.21;34.55;102360.38;5101676;28;20035;-76
2022/03/28 08:11:00;;;;;;;;;;;;;;;24.40;32.41;102366.44;5082745;28;19984;-75
2022/03/28 08:13:26;;;;;;;;;;;;;;;25.14;35.17;102372.06;5085313;28;19919;-76
2022/03/28 08:15:51;;;;;;;;;;;;;;;25.61;31.28;102366.34;5101442;28;19919;-76
2022/03/28 08:18:16;;;;;;;;;;;;;;;25.59;34.45;102372.50;5084118;28;19926;-74
2022/03/28 08:20:43;;;;;;;;;;;;;;;25.88;31.51;102359.91;5101299;28;19928;-75
2022/03/28 08:23:09;;;;;;;;;;;;;;;26.36;34.18;102357.53;5104000;27;20399;-76
2022/03/28 08:25:34;;;;;;;;;;;;;;;27.14;32.94;102355.50;5097637;28;19951;-75
2022/03/28 08:28:00;;;;;;;;;;;;;;;27.83;29.12;102354.22;5101886;28;19945;-74
2022/03/28 08:30:25;;;;;;;;;;;;;;;28.18;29.22;102351.72;5102647;28;19961;-76
2022/03/28 08:32:50;;;;;;;;;;;;;;;28.35;25.45;102355.81;5099141;28;20293;-75
2022/03/28 08:35:16;;;;;;;;;;;;;;;27.78;29.44;102349.91;5103339;28;19923;-76
2022/03/28 08:37:42;;;;;;;;;;;;;;;27.90;25.21;102342.63;5101749;28;19916;-76
2022/03/28 08:40:07;;;;;;;;;;;;;;;27.36;26.75;102338.38;5104715;28;19924;-76
2022/03/28 08:42:37;;;;;;;;;;;;;;;27.03;29.46;102339.81;5101618;28;19935;-76
2022/03/28 08:45:03;;;;;;;;;;;;;;;27.82;28.45;102339.28;5102051;28;19942;-75
2022/03/28 08:47:29;;;;;;;;;;;;;;;28.73;29.01;102344.31;5101659;28;20018;-76
2022/03/28 08:49:54;;;;;;;;;;;;;;;29.16;27.31;102338.81;5104808;28;19915;-76
2022/03/28 08:52:20;;;;;;;;;;;;;;;29.73;26.79;102334.63;5103504;28;19927;-77
2022/03/28 08:54:46;;;;;;;;;;;;;;;29.92;26.99;102339.38;5102025;28;20552;-78
2022/03/28 08:57:12;;;;;;;;;;;;;;;30.51;26.30;102342.91;5098606;28;19922;-76
2022/03/28 08:59:38;;;;;;;;;;;;;;;30.81;25.59;102341.94;5101591;28;19954;-77
2022/03/28 09:02:03;;;;;;;;;;;;;;;31.31;23.00;102323.44;5100674;28;20017;-77
2022/03/28 09:04:29;;;;;;;;;;;;;;;31.80;22.38;102340.25;5101513;28;20018;-78
2022/03/28 09:06:56;;;;;;;;;;;;;;;31.76;23.57;102339.47;5103894;28;19922;-77
2022/03/28 09:09:27;;;;;;;;;;;;;;;32.25;20.84;102332.28;5103285;28;19916;-77
2022/03/28 09:11:56;;;;;;;;;;;;;;;31.70;23.73;102333.50;5096440;28;20632;-75
2022/03/28 09:14:27;;;;;;;;;;;;;;;31.52;24.59;102335.06;5101292;28;20401;-76
2022/03/28 09:16:58;;;;;;;;;;;;;;;32.17;24.64;102329.06;5103331;28;20052;-76
2022/03/28 09:19:23;;;;;;;;;;;;;;;32.77;22.12;102330.19;5103926;28;19920;-76
2022/03/28 09:21:52;;;;;;;;;;;;;;;33.12;22.45;102319.81;5103344;28;19928;-76
2022/03/28 09:24:17;;;;;;;;;;;;;;;33.78;21.92;102316.88;5102207;28;19930;-76
2022/03/28 09:26:42;;;;;;;;;;;;;;;34.26;19.07;102315.50;5096454;28;19927;-77
2022/03/28 09:29:08;;;;;;;;;;;;;;;34.48;19.96;102316.22;5106720;28;19915;-76
2022/03/28 09:31:35;;;;;;;;;;;;;;;34.36;19.98;102306.97;5100924;28;19935;-74
2022/03/28 09:34:00;;;;;;;;;;;;;;;34.30;21.13;102317.09;5101083;28;19916;-73
2022/03/28 09:36:43;;;;;;;;;;;;;;;34.20;20.11;102305.13;5102909;28;19920;-73
2022/03/28 09:39:10;;;;;;;;;;;;;;;34.30;20.98;102299.28;5105315;28;20002;-73
2022/03/28 09:41:36;;;;;;;;;;;;;;;34.55;20.20;102314.09;5104900;28;19915;-73
2022/03/28 09:44:02;;;;;;;;;;;;;;;34.94;20.25;102303.22;5113381;28;19938;-72
2022/03/28 09:46:28;;;;;;;;;;;;;;;35.71;18.41;102295.50;5118526;28;19916;-72
2022/03/28 09:48:54;;;;;;;;;;;;;;;35.79;19.08;102291.53;5121517;28;19919;-71
2022/03/28 09:51:23;;;;;;;;;;;;;;;35.88;18.13;102293.72;5120758;28;19919;-71
2022/03/28 09:53:48;;;;;;;;;;;;;;;36.01;19.08;102294.78;5111530;28;20297;-72
2022/03/28 09:56:14;;;;;;;;;;;;;;;36.09;19.07;102292.50;5108877;28;20010;-72
2022/03/28 09:58:46;;;;;;;;;;;;;;;35.97;18.06;102288.72;5110638;28;19974;-71
2022/03/28 10:01:16;;;;;;;;;;;;;;;36.24;17.30;102288.09;5101830;28;19924;-72
2022/03/28 10:03:44;;;;;;;;;;;;;;;36.14;19.00;102281.53;5106129;28;19916;-72
2022/03/28 10:06:09;;;;;;;;;;;;;;;36.33;19.00;102284.00;5105207;28;20415;-72
2022/03/28 10:08:36;;;;;;;;;;;;;;;36.37;18.08;102277.53;5109454;28;19949;-72
2022/03/28 10:11:02;;;;;;;;;;;;;;;36.41;17.64;102276.44;5106718;28;19920;-73
2022/03/28 10:13:29;;;;;;;;;;;;;;;36.30;18.42;102269.00;5111164;28;19976;-72
2022/03/28 10:15:55;;;;;;;;;;;;;;;36.23;16.75;102271.16;5111094;28;19924;-73
2022/03/28 10:18:20;;;;;;;;;;;;;;;35.85;18.57;102269.78;5107320;28;19920;-73
2022/03/28 10:20:47;;;;;;;;;;;;;;;35.68;18.46;102268.94;5108916;28;19925;-73
2022/03/28 10:23:14;;;;;;;;;;;;;;;36.20;18.28;102265.97;5107985;28;19994;-73
2022/03/28 10:25:40;;;;;;;;;;;;;;;36.69;16.83;102260.41;5109744;28;19955;-73
2022/03/28 10:28:07;;;;;;;;;;;;;;;36.84;17.98;102265.84;5107979;28;20382;-72
2022/03/28 10:30:33;;;;;;;;;;;;;;;37.09;16.93;102254.50;5110783;28;19919;-73
2022/03/28 10:33:08;;;;;;;;;;;;;;;37.29;16.79;102244.22;5107454;28;19927;-73
2022/03/28 10:35:33;;;;;;;;;;;;;;;37.04;17.39;102247.59;5104518;28;20431;-73
2022/03/28 10:38:19;;;;;;;;;;;;;;;37.48;16.50;102237.72;5109792;28;19961;-73
2022/03/28 10:40:57;;;;;;;;;;;;;;;37.34;17.10;102235.91;5110261;27;20450;-72
2022/03/28 10:43:28;;;;;;;;;;;;;;;37.23;17.22;102227.66;5106251;28;20026;-73
2022/03/28 10:45:58;;;;;;;;;;;;;;;35.60;17.16;102230.16;5108504;28;19923;-73
2022/03/28 10:48:32;;;;;;;;;;;;;;;35.33;18.15;102225.38;5107509;28;19923;-73
2022/03/28 10:51:02;;;;;;;;;;;;;;;35.06;16.67;102221.50;5109208;28;19924;-73
2022/03/28 10:53:33;;;;;;;;;;;;;;;35.01;18.52;102223.56;5106355;28;19927;-72
2022/03/28 10:56:03;;;;;;;;;;;;;;;35.76;16.66;102225.69;5105686;28;19958;-73
2022/03/28 10:58:36;;;;;;;;;;;;;;;35.17;16.80;102216.44;5105353;28;19973;-73
2022/03/28 11:01:07;;;;;;;;;;;;;;;33.83;18.04;102214.34;5107292;28;19924;-73
2022/03/28 11:03:36;;;;;;;;;;;;;;;33.40;18.90;102207.53;5103468;28;19951;-73
2022/03/28 11:06:02;;;;;;;;;;;;;;;34.13;18.15;102206.66;5107627;28;20423;-73
2022/03/28 11:08:30;;;;;;;;;;;;;;;34.46;18.73;102205.06;5106264;28;19927;-72
2022/03/28 11:11:13;;;;;;;;;;;;;;;35.36;17.82;102198.44;5106776;28;19920;-72
2022/03/28 11:13:39;;;;;;;;;;;;;;;35.85;17.02;102197.50;5104627;28;19920;-73
2022/03/28 11:16:04;;;;;;;;;;;;;;;35.69;18.01;102201.09;5106339;28;19972;-73
2022/03/28 11:18:30;;;;;;;;;;;;;;;36.12;16.82;102190.59;5104438;28;20303;-73
2022/03/28 11:20:55;;;;;;;;;;;;;;;36.50;17.41;102193.69;5106958;28;19951;-73
2022/03/28 11:23:22;;;;;;;;;;;;;;;36.87;15.75;102191.47;5106720;28;19959;-75
2022/03/28 11:25:55;;;;;;;;;;;;;;;36.90;16.23;102182.38;5105284;28;20039;-74
2022/03/28 11:28:23;;;;;;;;;;;;;;;36.74;17.02;102177.06;5101763;28;19920;-74
2022/03/28 11:30:51;;;;;;;;;;;;;;;37.13;16.23;102173.72;5105037;28;19948;-74
2022/03/28 11:33:27;;;;;;;;;;;;;;;36.93;16.69;102168.78;5106830;28;20002;-74
2022/03/28 11:35:53;;;;;;;;;;;;;;;37.00;15.82;102164.75;5108650;28;19970;-74
2022/03/28 11:38:20;;;;;;;;;;;;;;;36.61;16.40;102166.25;5110552;28;20425;-74
2022/03/28 11:40:45;;;;;;;;;;;;;;;36.08;16.06;102169.44;5107961;28;19945;-74
2022/03/28 11:43:10;;;;;;;;;;;;;;;35.88;16.20;102165.22;5105294;28;20460;-74
2022/03/28 11:45:44;;;;;;;;;;;;;;;35.85;16.46;102163.59;5107338;28;19956;-74
2022/03/28 11:48:09;;;;;;;;;;;;;;;36.22;16.20;102156.09;5103279;28;20409;-75
2022/03/28 11:50:35;;;;;;;;;;;;;;;36.67;15.94;102152.47;5103290;28;19920;-74
2022/03/28 11:53:00;;;;;;;;;;;;;;;36.86;15.51;102151.31;5104854;28;19919;-75
2022/03/28 11:55:27;;;;;;;;;;;;;;;36.82;15.96;102147.09;5099863;28;19977;-76
2022/03/28 12:00:37;;;;;;;;;;;;;;;37.30;15.34;102151.19;5106306;28;19922;-76
2022/03/28 12:03:03;;;;;;;;;;;;;;;37.37;15.11;102138.28;5102329;28;20003;-76
2022/03/28 12:05:31;;;;;;;;;;;;;;;36.82;15.18;102134.56;5108260;28;19946;-76
2022/03/28 12:07:57;;;;;;;;;;;;;;;36.46;15.76;102141.25;5106484;28;19993;-76
2022/03/28 12:10:24;;;;;;;;;;;;;;;36.32;16.27;102138.53;5107648;28;20007;-76
2022/03/28 12:12:49;;;;;;;;;;;;;;;35.35;17.10;102143.22;5106248;28;19920;-76
2022/03/28 12:15:22;;;;;;;;;;;;;;;35.04;16.25;102136.06;5108287;28;19912;-76
2022/03/28 12:17:51;;;;;;;;;;;;;;;35.11;16.96;102137.44;5105098;28;19966;-76
2022/03/28 12:20:16;;;;;;;;;;;;;;;34.67;17.53;102121.13;5104845;28;19955;-77
2022/03/28 12:22:45;;;;;;;;;;;;;;;34.20;17.30;102119.13;5103689;28;19955;-75
2022/03/28 12:25:21;;;;;;;;;;;;;;;33.70;17.75;102114.50;5107239;28;19978;-75
2022/03/28 12:27:50;;;;;;;;;;;;;;;33.03;18.64;102109.72;5096950;28;19955;-75
2022/03/28 12:30:15;;;;;;;;;;;;;;;32.05;18.68;102105.19;5097145;28;20370;-75
2022/03/28 12:32:43;;;;;;;;;;;;;;;30.35;20.68;102109.03;5097378;28;19930;-75
2022/03/28 12:35:09;;;;;;;;;;;;;;;29.96;20.98;102100.59;5103901;28;19911;-77
2022/03/28 12:37:36;;;;;;;;;;;;;;;30.53;20.50;102099.53;5107497;28;19955;-75
2022/03/28 12:40:01;;;;;;;;;;;;;;;31.20;20.41;102099.69;5105844;28;19916;-76